sensor_id;sensor_type;location;lat;lon;timestamp;P1;durP1;ratioP1;P2;durP2;ratioP2
73107;SDS011;61559;50.476;15.588;2023-02-10T00:00:07;25.00;;;10.50;;
73107;SDS011;61559;50.476;15.588;2023-02-10T00:03:00;27.90;;;11.60;;
73107;SDS011;61559;50.476;15.588;2023-02-10T00:05:31;23.70;;;10.40;;
73107;SDS011;61559;50.476;15.588;2023-02-10T00:08:02;27.30;;;11.70;;
73107;SDS011;61559;50.476;15.588;2023-02-10T00:10:33;27.40;;;11.50;;
73107;SDS011;61559;50.476;15.588;2023-02-10T00:13:04;30.70;;;11.80;;
73107;SDS011;61559;50.476;15.588;2023-02-10T00:15:36;24.00;;;10.60;;
73107;SDS011;61559;50.476;15.588;2023-02-10T00:18:07;23.00;;;10.50;;
73107;SDS011;61559;50.476;15.588;2023-02-10T00:20:38;28.50;;;11.30;;
73107;SDS011;61559;50.476;15.588;2023-02-10T00:23:09;26.90;;;11.30;;
73107;SDS011;61559;50.476;15.588;2023-02-10T00:25:40;30.60;;;12.10;;
73107;SDS011;61559;50.476;15.588;2023-02-10T00:28:12;28.80;;;12.10;;
73107;SDS011;61559;50.476;15.588;2023-02-10T00:30:43;28.80;;;11.90;;
73107;SDS011;61559;50.476;15.588;2023-02-10T00:33:14;32.60;;;12.60;;
73107;SDS011;61559;50.476;15.588;2023-02-10T00:38:16;29.70;;;11.40;;
73107;SDS011;61559;50.476;15.588;2023-02-10T00:40:47;25.10;;;11.70;;
73107;SDS011;61559;50.476;15.588;2023-02-10T00:43:18;27.60;;;11.20;;
73107;SDS011;61559;50.476;15.588;2023-02-10T00:45:49;22.00;;;7.70;;
73107;SDS011;61559;50.476;15.588;2023-02-10T00:48:19;30.70;;;12.20;;
73107;SDS011;61559;50.476;15.588;2023-02-10T00:50:50;30.30;;;11.50;;
73107;SDS011;61559;50.476;15.588;2023-02-10T00:53:21;30.20;;;11.80;;
73107;SDS011;61559;50.476;15.588;2023-02-10T00:55:52;28.20;;;11.20;;
73107;SDS011;61559;50.476;15.588;2023-02-10T00:58:24;24.30;;;10.40;;
73107;SDS011;61559;50.476;15.588;2023-02-10T01:00:55;26.60;;;10.10;;
73107;SDS011;61559;50.476;15.588;2023-02-10T01:03:27;26.70;;;11.20;;
73107;SDS011;61559;50.476;15.588;2023-02-10T01:05:58;24.40;;;10.10;;
73107;SDS011;61559;50.476;15.588;2023-02-10T01:08:29;24.70;;;8.90;;
73107;SDS011;61559;50.476;15.588;2023-02-10T01:11:01;28.80;;;11.60;;
73107;SDS011;61559;50.476;15.588;2023-02-10T01:13:34;22.30;;;10.40;;
73107;SDS011;61559;50.476;15.588;2023-02-10T01:16:07;23.40;;;10.00;;
73107;SDS011;61559;50.476;15.588;2023-02-10T01:18:41;29.50;;;10.30;;
73107;SDS011;61559;50.476;15.588;2023-02-10T01:21:14;18.80;;;8.60;;
73107;SDS011;61559;50.476;15.588;2023-02-10T01:23:47;22.10;;;10.20;;
73107;SDS011;61559;50.476;15.588;2023-02-10T01:26:18;29.30;;;11.80;;
73107;SDS011;61559;50.476;15.588;2023-02-10T01:28:49;25.30;;;10.40;;
73107;SDS011;61559;50.476;15.588;2023-02-10T01:31:20;20.40;;;9.60;;
73107;SDS011;61559;50.476;15.588;2023-02-10T01:33:52;26.40;;;11.00;;
73107;SDS011;61559;50.476;15.588;2023-02-10T01:36:24;27.00;;;11.00;;
73107;SDS011;61559;50.476;15.588;2023-02-10T01:38:55;22.30;;;9.00;;
73107;SDS011;61559;50.476;15.588;2023-02-10T01:41:26;24.50;;;9.80;;
73107;SDS011;61559;50.476;15.588;2023-02-10T01:43:59;16.10;;;8.30;;
73107;SDS011;61559;50.476;15.588;2023-02-10T01:46:33;19.30;;;8.00;;
73107;SDS011;61559;50.476;15.588;2023-02-10T01:49:05;22.30;;;8.70;;
73107;SDS011;61559;50.476;15.588;2023-02-10T01:51:41;21.50;;;9.40;;
73107;SDS011;61559;50.476;15.588;2023-02-10T01:54:16;20.70;;;8.70;;
73107;SDS011;61559;50.476;15.588;2023-02-10T01:56:51;20.60;;;8.10;;
73107;SDS011;61559;50.476;15.588;2023-02-10T01:59:23;24.10;;;9.20;;
73107;SDS011;61559;50.476;15.588;2023-02-10T02:01:59;19.20;;;8.60;;
73107;SDS011;61559;50.476;15.588;2023-02-10T02:04:36;21.50;;;8.70;;
73107;SDS011;61559;50.476;15.588;2023-02-10T02:07:10;23.20;;;9.90;;
73107;SDS011;61559;50.476;15.588;2023-02-10T02:09:42;25.30;;;9.60;;
73107;SDS011;61559;50.476;15.588;2023-02-10T02:12:15;23.50;;;8.20;;
73107;SDS011;61559;50.476;15.588;2023-02-10T02:14:55;20.10;;;7.90;;
73107;SDS011;61559;50.476;15.588;2023-02-10T02:17:33;18.00;;;8.10;;
73107;SDS011;61559;50.476;15.588;2023-02-10T02:20:30;20.70;;;8.20;;
73107;SDS011;61559;50.476;15.588;2023-02-10T02:23:20;15.80;;;6.30;;
73107;SDS011;61559;50.476;15.588;2023-02-10T02:26:23;16.70;;;6.40;;
73107;SDS011;61559;50.476;15.588;2023-02-10T02:32:01;14.10;;;7.00;;
73107;SDS011;61559;50.476;15.588;2023-02-10T02:34:35;18.20;;;6.50;;
73107;SDS011;61559;50.476;15.588;2023-02-10T02:37:12;18.40;;;6.40;;
73107;SDS011;61559;50.476;15.588;2023-02-10T02:39:47;20.50;;;7.80;;
73107;SDS011;61559;50.476;15.588;2023-02-10T02:42:20;15.50;;;7.20;;
73107;SDS011;61559;50.476;15.588;2023-02-10T02:44:54;20.70;;;7.10;;
73107;SDS011;61559;50.476;15.588;2023-02-10T02:47:31;21.70;;;8.40;;
73107;SDS011;61559;50.476;15.588;2023-02-10T02:50:17;15.60;;;6.70;;
73107;SDS011;61559;50.476;15.588;2023-02-10T02:52:58;13.20;;;5.80;;
73107;SDS011;61559;50.476;15.588;2023-02-10T02:55:38;12.10;;;5.60;;
73107;SDS011;61559;50.476;15.588;2023-02-10T02:58:20;16.30;;;6.80;;
73107;SDS011;61559;50.476;15.588;2023-02-10T03:01:00;12.30;;;5.70;;
73107;SDS011;61559;50.476;15.588;2023-02-10T03:03:37;24.70;;;7.40;;
73107;SDS011;61559;50.476;15.588;2023-02-10T03:06:09;16.30;;;7.80;;
73107;SDS011;61559;50.476;15.588;2023-02-10T03:08:40;17.10;;;7.90;;
73107;SDS011;61559;50.476;15.588;2023-02-10T03:11:11;18.30;;;7.90;;
73107;SDS011;61559;50.476;15.588;2023-02-10T03:13:43;25.30;;;7.90;;
73107;SDS011;61559;50.476;15.588;2023-02-10T03:16:14;23.70;;;8.30;;
73107;SDS011;61559;50.476;15.588;2023-02-10T03:18:45;24.20;;;9.20;;
73107;SDS011;61559;50.476;15.588;2023-02-10T03:21:17;21.90;;;8.40;;
73107;SDS011;61559;50.476;15.588;2023-02-10T03:23:48;24.20;;;9.10;;
73107;SDS011;61559;50.476;15.588;2023-02-10T03:26:19;21.80;;;8.80;;
73107;SDS011;61559;50.476;15.588;2023-02-10T03:28:50;24.70;;;8.90;;
73107;SDS011;61559;50.476;15.588;2023-02-10T03:31:21;14.70;;;7.10;;
73107;SDS011;61559;50.476;15.588;2023-02-10T03:33:52;22.30;;;8.70;;
73107;SDS011;61559;50.476;15.588;2023-02-10T03:36:23;19.80;;;8.10;;
73107;SDS011;61559;50.476;15.588;2023-02-10T03:38:54;23.50;;;7.30;;
73107;SDS011;61559;50.476;15.588;2023-02-10T03:41:25;16.70;;;7.20;;
73107;SDS011;61559;50.476;15.588;2023-02-10T03:43:56;22.50;;;8.30;;
73107;SDS011;61559;50.476;15.588;2023-02-10T03:46:28;19.40;;;7.90;;
73107;SDS011;61559;50.476;15.588;2023-02-10T03:48:59;26.20;;;9.10;;
73107;SDS011;61559;50.476;15.588;2023-02-10T03:51:30;23.70;;;8.30;;
73107;SDS011;61559;50.476;15.588;2023-02-10T03:54:01;27.50;;;8.80;;
73107;SDS011;61559;50.476;15.588;2023-02-10T03:56:33;20.10;;;8.60;;
73107;SDS011;61559;50.476;15.588;2023-02-10T03:59:04;25.20;;;8.20;;
73107;SDS011;61559;50.476;15.588;2023-02-10T04:01:35;21.60;;;7.20;;
73107;SDS011;61559;50.476;15.588;2023-02-10T04:04:06;23.90;;;8.90;;
73107;SDS011;61559;50.476;15.588;2023-02-10T04:06:37;20.70;;;8.30;;
73107;SDS011;61559;50.476;15.588;2023-02-10T04:09:08;27.80;;;8.00;;
73107;SDS011;61559;50.476;15.588;2023-02-10T04:11:39;23.80;;;9.00;;
73107;SDS011;61559;50.476;15.588;2023-02-10T04:14:11;16.20;;;7.60;;
73107;SDS011;61559;50.476;15.588;2023-02-10T04:16:42;24.00;;;8.50;;
73107;SDS011;61559;50.476;15.588;2023-02-10T04:19:13;23.80;;;8.90;;
73107;SDS011;61559;50.476;15.588;2023-02-10T04:21:44;14.90;;;7.30;;
73107;SDS011;61559;50.476;15.588;2023-02-10T04:24:16;19.30;;;7.20;;
73107;SDS011;61559;50.476;15.588;2023-02-10T04:26:47;24.00;;;8.30;;
73107;SDS011;61559;50.476;15.588;2023-02-10T04:29:18;25.70;;;8.40;;
73107;SDS011;61559;50.476;15.588;2023-02-10T04:31:49;21.80;;;8.50;;
73107;SDS011;61559;50.476;15.588;2023-02-10T04:34:20;23.20;;;7.50;;
73107;SDS011;61559;50.476;15.588;2023-02-10T04:36:51;19.60;;;7.00;;
73107;SDS011;61559;50.476;15.588;2023-02-10T04:39:22;17.00;;;7.10;;
73107;SDS011;61559;50.476;15.588;2023-02-10T04:41:53;15.60;;;7.00;;
73107;SDS011;61559;50.476;15.588;2023-02-10T04:44:24;21.50;;;8.40;;
73107;SDS011;61559;50.476;15.588;2023-02-10T04:46:55;20.10;;;7.60;;
73107;SDS011;61559;50.476;15.588;2023-02-10T04:49:26;21.50;;;8.10;;
73107;SDS011;61559;50.476;15.588;2023-02-10T04:51:57;26.80;;;8.80;;
73107;SDS011;61559;50.476;15.588;2023-02-10T04:54:28;19.90;;;7.50;;
73107;SDS011;61559;50.476;15.588;2023-02-10T04:56:59;27.40;;;7.70;;
73107;SDS011;61559;50.476;15.588;2023-02-10T04:59:30;18.60;;;7.90;;
73107;SDS011;61559;50.476;15.588;2023-02-10T05:02:01;20.50;;;7.90;;
73107;SDS011;61559;50.476;15.588;2023-02-10T05:04:33;25.50;;;9.70;;
73107;SDS011;61559;50.476;15.588;2023-02-10T05:07:04;22.40;;;7.40;;
73107;SDS011;61559;50.476;15.588;2023-02-10T05:09:35;19.20;;;7.50;;
73107;SDS011;61559;50.476;15.588;2023-02-10T05:12:07;18.10;;;7.10;;
73107;SDS011;61559;50.476;15.588;2023-02-10T05:14:38;20.10;;;7.90;;
73107;SDS011;61559;50.476;15.588;2023-02-10T05:17:09;20.40;;;8.30;;
73107;SDS011;61559;50.476;15.588;2023-02-10T05:19:42;21.20;;;8.30;;
73107;SDS011;61559;50.476;15.588;2023-02-10T05:22:17;21.70;;;7.60;;
73107;SDS011;61559;50.476;15.588;2023-02-10T05:24:50;18.90;;;7.80;;
73107;SDS011;61559;50.476;15.588;2023-02-10T05:29:52;19.10;;;7.10;;
73107;SDS011;61559;50.476;15.588;2023-02-10T05:32:23;19.40;;;7.00;;
73107;SDS011;61559;50.476;15.588;2023-02-10T05:34:54;16.10;;;7.20;;
73107;SDS011;61559;50.476;15.588;2023-02-10T05:37:25;17.40;;;6.80;;
73107;SDS011;61559;50.476;15.588;2023-02-10T05:39:57;17.70;;;7.00;;
73107;SDS011;61559;50.476;15.588;2023-02-10T05:42:28;16.30;;;7.30;;
73107;SDS011;61559;50.476;15.588;2023-02-10T05:44:59;17.60;;;7.40;;
73107;SDS011;61559;50.476;15.588;2023-02-10T05:47:30;22.50;;;8.20;;
73107;SDS011;61559;50.476;15.588;2023-02-10T05:50:01;22.50;;;7.90;;
73107;SDS011;61559;50.476;15.588;2023-02-10T05:52:32;18.00;;;7.10;;
73107;SDS011;61559;50.476;15.588;2023-02-10T05:55:04;21.60;;;7.80;;
73107;SDS011;61559;50.476;15.588;2023-02-10T05:57:35;67.10;;;18.90;;
73107;SDS011;61559;50.476;15.588;2023-02-10T06:00:07;133.80;;;36.20;;
73107;SDS011;61559;50.476;15.588;2023-02-10T06:02:39;124.70;;;34.30;;
73107;SDS011;61559;50.476;15.588;2023-02-10T06:05:10;91.60;;;25.60;;
73107;SDS011;61559;50.476;15.588;2023-02-10T06:07:42;77.70;;;22.70;;
73107;SDS011;61559;50.476;15.588;2023-02-10T06:12:44;67.10;;;18.50;;
73107;SDS011;61559;50.476;15.588;2023-02-10T06:15:15;82.00;;;24.00;;
73107;SDS011;61559;50.476;15.588;2023-02-10T06:17:46;67.90;;;21.70;;
73107;SDS011;61559;50.476;15.588;2023-02-10T06:20:17;36.40;;;12.20;;
73107;SDS011;61559;50.476;15.588;2023-02-10T06:22:48;37.50;;;11.90;;
73107;SDS011;61559;50.476;15.588;2023-02-10T06:25:19;51.00;;;14.50;;
73107;SDS011;61559;50.476;15.588;2023-02-10T06:27:50;72.00;;;22.50;;
73107;SDS011;61559;50.476;15.588;2023-02-10T06:30:21;57.00;;;19.60;;
73107;SDS011;61559;50.476;15.588;2023-02-10T06:32:53;43.70;;;15.30;;
73107;SDS011;61559;50.476;15.588;2023-02-10T06:35:23;41.00;;;13.80;;
73107;SDS011;61559;50.476;15.588;2023-02-10T06:37:55;31.70;;;10.00;;
73107;SDS011;61559;50.476;15.588;2023-02-10T06:40:26;26.60;;;10.10;;
73107;SDS011;61559;50.476;15.588;2023-02-10T06:42:57;20.20;;;8.50;;
73107;SDS011;61559;50.476;15.588;2023-02-10T06:45:29;25.90;;;9.60;;
73107;SDS011;61559;50.476;15.588;2023-02-10T06:48:01;24.60;;;9.80;;
73107;SDS011;61559;50.476;15.588;2023-02-10T06:50:33;25.80;;;9.50;;
73107;SDS011;61559;50.476;15.588;2023-02-10T06:53:06;23.10;;;8.70;;
73107;SDS011;61559;50.476;15.588;2023-02-10T06:55:37;29.60;;;12.20;;
73107;SDS011;61559;50.476;15.588;2023-02-10T06:58:08;37.30;;;14.20;;
73107;SDS011;61559;50.476;15.588;2023-02-10T07:00:40;31.20;;;13.30;;
73107;SDS011;61559;50.476;15.588;2023-02-10T07:03:12;33.20;;;13.60;;
73107;SDS011;61559;50.476;15.588;2023-02-10T07:05:43;25.30;;;11.20;;
73107;SDS011;61559;50.476;15.588;2023-02-10T07:08:15;33.80;;;12.60;;
73107;SDS011;61559;50.476;15.588;2023-02-10T07:10:46;26.60;;;11.70;;
73107;SDS011;61559;50.476;15.588;2023-02-10T07:13:17;24.30;;;10.90;;
73107;SDS011;61559;50.476;15.588;2023-02-10T07:15:48;22.50;;;9.30;;
73107;SDS011;61559;50.476;15.588;2023-02-10T07:18:19;29.50;;;12.00;;
73107;SDS011;61559;50.476;15.588;2023-02-10T07:20:50;28.50;;;12.20;;
73107;SDS011;61559;50.476;15.588;2023-02-10T07:23:21;22.30;;;9.40;;
73107;SDS011;61559;50.476;15.588;2023-02-10T07:26:04;29.10;;;12.10;;
73107;SDS011;61559;50.476;15.588;2023-02-10T07:28:36;27.60;;;12.70;;
73107;SDS011;61559;50.476;15.588;2023-02-10T07:31:07;33.00;;;11.90;;
73107;SDS011;61559;50.476;15.588;2023-02-10T07:33:39;31.30;;;11.90;;
73107;SDS011;61559;50.476;15.588;2023-02-10T07:36:10;26.80;;;11.80;;
73107;SDS011;61559;50.476;15.588;2023-02-10T07:38:41;34.30;;;12.10;;
73107;SDS011;61559;50.476;15.588;2023-02-10T07:41:12;25.60;;;10.90;;
73107;SDS011;61559;50.476;15.588;2023-02-10T07:43:43;32.40;;;13.00;;
73107;SDS011;61559;50.476;15.588;2023-02-10T07:46:14;30.40;;;13.30;;
73107;SDS011;61559;50.476;15.588;2023-02-10T07:48:45;28.70;;;12.70;;
73107;SDS011;61559;50.476;15.588;2023-02-10T07:51:16;26.60;;;12.20;;
73107;SDS011;61559;50.476;15.588;2023-02-10T07:53:47;32.40;;;13.90;;
73107;SDS011;61559;50.476;15.588;2023-02-10T07:56:18;32.00;;;13.30;;
73107;SDS011;61559;50.476;15.588;2023-02-10T07:58:49;30.10;;;11.80;;
73107;SDS011;61559;50.476;15.588;2023-02-10T08:01:20;34.30;;;14.70;;
73107;SDS011;61559;50.476;15.588;2023-02-10T08:03:51;31.90;;;14.50;;
73107;SDS011;61559;50.476;15.588;2023-02-10T08:06:23;30.60;;;13.10;;
73107;SDS011;61559;50.476;15.588;2023-02-10T08:08:54;28.80;;;13.40;;
73107;SDS011;61559;50.476;15.588;2023-02-10T08:11:25;26.60;;;11.70;;
73107;SDS011;61559;50.476;15.588;2023-02-10T08:14:00;18.30;;;9.60;;
73107;SDS011;61559;50.476;15.588;2023-02-10T08:16:31;19.40;;;9.60;;
73107;SDS011;61559;50.476;15.588;2023-02-10T08:19:02;22.80;;;9.30;;
73107;SDS011;61559;50.476;15.588;2023-02-10T08:21:33;22.40;;;11.10;;
73107;SDS011;61559;50.476;15.588;2023-02-10T08:24:04;19.20;;;10.80;;
73107;SDS011;61559;50.476;15.588;2023-02-10T08:26:36;26.70;;;13.50;;
73107;SDS011;61559;50.476;15.588;2023-02-10T08:29:08;29.60;;;13.30;;
73107;SDS011;61559;50.476;15.588;2023-02-10T08:34:14;24.90;;;13.20;;
73107;SDS011;61559;50.476;15.588;2023-02-10T08:36:45;21.30;;;10.80;;
73107;SDS011;61559;50.476;15.588;2023-02-10T08:39:17;25.70;;;12.00;;
73107;SDS011;61559;50.476;15.588;2023-02-10T08:41:48;29.50;;;15.50;;
73107;SDS011;61559;50.476;15.588;2023-02-10T08:46:49;38.10;;;15.50;;
73107;SDS011;61559;50.476;15.588;2023-02-10T08:49:21;34.70;;;15.00;;
73107;SDS011;61559;50.476;15.588;2023-02-10T08:51:56;35.30;;;15.40;;
73107;SDS011;61559;50.476;15.588;2023-02-10T08:54:28;31.60;;;14.90;;
73107;SDS011;61559;50.476;15.588;2023-02-10T08:56:59;44.90;;;18.70;;
73107;SDS011;61559;50.476;15.588;2023-02-10T08:59:30;46.70;;;18.80;;
73107;SDS011;61559;50.476;15.588;2023-02-10T09:02:01;53.70;;;21.20;;
73107;SDS011;61559;50.476;15.588;2023-02-10T09:07:02;53.70;;;21.90;;
73107;SDS011;61559;50.476;15.588;2023-02-10T09:09:35;45.90;;;19.90;;
73107;SDS011;61559;50.476;15.588;2023-02-10T09:12:08;37.40;;;16.70;;
73107;SDS011;61559;50.476;15.588;2023-02-10T09:14:40;44.50;;;19.80;;
73107;SDS011;61559;50.476;15.588;2023-02-10T09:17:11;43.10;;;19.00;;
73107;SDS011;61559;50.476;15.588;2023-02-10T09:19:42;36.30;;;16.70;;
73107;SDS011;61559;50.476;15.588;2023-02-10T09:22:13;42.80;;;18.90;;
73107;SDS011;61559;50.476;15.588;2023-02-10T09:24:45;46.30;;;19.50;;
73107;SDS011;61559;50.476;15.588;2023-02-10T09:27:17;37.00;;;17.40;;
73107;SDS011;61559;50.476;15.588;2023-02-10T09:29:49;47.90;;;20.00;;
73107;SDS011;61559;50.476;15.588;2023-02-10T09:32:20;41.60;;;18.50;;
73107;SDS011;61559;50.476;15.588;2023-02-10T09:34:52;39.60;;;16.80;;
73107;SDS011;61559;50.476;15.588;2023-02-10T09:37:23;61.40;;;26.90;;
73107;SDS011;61559;50.476;15.588;2023-02-10T09:39:54;34.20;;;15.60;;
73107;SDS011;61559;50.476;15.588;2023-02-10T09:42:26;41.50;;;17.60;;
73107;SDS011;61559;50.476;15.588;2023-02-10T09:45:11;31.10;;;14.10;;
73107;SDS011;61559;50.476;15.588;2023-02-10T09:47:48;36.50;;;16.90;;
73107;SDS011;61559;50.476;15.588;2023-02-10T09:50:24;29.20;;;15.00;;
73107;SDS011;61559;50.476;15.588;2023-02-10T09:53:07;33.70;;;14.80;;
73107;SDS011;61559;50.476;15.588;2023-02-10T09:55:43;31.00;;;14.40;;
73107;SDS011;61559;50.476;15.588;2023-02-10T09:58:19;47.50;;;17.40;;
73107;SDS011;61559;50.476;15.588;2023-02-10T10:00:55;64.90;;;22.50;;
73107;SDS011;61559;50.476;15.588;2023-02-10T10:03:34;82.10;;;27.40;;
73107;SDS011;61559;50.476;15.588;2023-02-10T10:06:16;35.50;;;14.70;;
73107;SDS011;61559;50.476;15.588;2023-02-10T10:08:57;68.70;;;24.20;;
73107;SDS011;61559;50.476;15.588;2023-02-10T10:11:37;33.90;;;15.30;;
73107;SDS011;61559;50.476;15.588;2023-02-10T10:14:15;44.80;;;17.50;;
73107;SDS011;61559;50.476;15.588;2023-02-10T10:16:55;36.70;;;16.30;;
73107;SDS011;61559;50.476;15.588;2023-02-10T10:19:38;30.00;;;12.80;;
73107;SDS011;61559;50.476;15.588;2023-02-10T10:22:23;35.80;;;14.90;;
73107;SDS011;61559;50.476;15.588;2023-02-10T10:25:12;41.60;;;16.90;;
73107;SDS011;61559;50.476;15.588;2023-02-10T10:28:02;46.90;;;17.50;;
73107;SDS011;61559;50.476;15.588;2023-02-10T10:30:46;55.60;;;19.80;;
73107;SDS011;61559;50.476;15.588;2023-02-10T10:33:23;32.80;;;14.00;;
73107;SDS011;61559;50.476;15.588;2023-02-10T10:35:58;43.40;;;17.80;;
73107;SDS011;61559;50.476;15.588;2023-02-10T10:38:31;57.80;;;18.80;;
73107;SDS011;61559;50.476;15.588;2023-02-10T10:41:13;37.60;;;15.10;;
73107;SDS011;61559;50.476;15.588;2023-02-10T10:43:45;35.20;;;15.10;;
73107;SDS011;61559;50.476;15.588;2023-02-10T10:46:21;37.70;;;15.40;;
73107;SDS011;61559;50.476;15.588;2023-02-10T10:48:56;114.80;;;34.00;;
73107;SDS011;61559;50.476;15.588;2023-02-10T10:51:28;63.50;;;21.60;;
73107;SDS011;61559;50.476;15.588;2023-02-10T10:53:59;56.60;;;20.60;;
73107;SDS011;61559;50.476;15.588;2023-02-10T10:56:33;36.10;;;16.40;;
73107;SDS011;61559;50.476;15.588;2023-02-10T10:59:12;42.70;;;16.60;;
73107;SDS011;61559;50.476;15.588;2023-02-10T11:01:45;39.10;;;17.10;;
73107;SDS011;61559;50.476;15.588;2023-02-10T11:04:18;36.60;;;16.00;;
73107;SDS011;61559;50.476;15.588;2023-02-10T11:06:52;45.20;;;17.70;;
73107;SDS011;61559;50.476;15.588;2023-02-10T11:09:28;49.60;;;19.00;;
73107;SDS011;61559;50.476;15.588;2023-02-10T11:12:04;36.00;;;16.50;;
73107;SDS011;61559;50.476;15.588;2023-02-10T11:14:43;39.00;;;16.20;;
73107;SDS011;61559;50.476;15.588;2023-02-10T11:17:23;35.20;;;16.80;;
73107;SDS011;61559;50.476;15.588;2023-02-10T11:20:00;38.20;;;16.20;;
73107;SDS011;61559;50.476;15.588;2023-02-10T11:22:33;37.40;;;15.80;;
73107;SDS011;61559;50.476;15.588;2023-02-10T11:25:21;36.20;;;15.40;;
73107;SDS011;61559;50.476;15.588;2023-02-10T11:27:56;36.00;;;15.40;;
73107;SDS011;61559;50.476;15.588;2023-02-10T11:30:30;29.20;;;13.80;;
73107;SDS011;61559;50.476;15.588;2023-02-10T11:33:04;34.40;;;14.90;;
73107;SDS011;61559;50.476;15.588;2023-02-10T11:35:48;37.60;;;15.70;;
73107;SDS011;61559;50.476;15.588;2023-02-10T11:38:21;42.40;;;17.10;;
73107;SDS011;61559;50.476;15.588;2023-02-10T11:40:56;42.30;;;18.90;;
73107;SDS011;61559;50.476;15.588;2023-02-10T11:43:30;39.60;;;16.40;;
73107;SDS011;61559;50.476;15.588;2023-02-10T11:46:05;44.00;;;17.00;;
73107;SDS011;61559;50.476;15.588;2023-02-10T11:48:52;43.70;;;18.10;;
73107;SDS011;61559;50.476;15.588;2023-02-10T11:51:25;38.40;;;17.60;;
73107;SDS011;61559;50.476;15.588;2023-02-10T11:53:56;45.50;;;18.70;;
73107;SDS011;61559;50.476;15.588;2023-02-10T11:56:32;35.80;;;16.00;;
73107;SDS011;61559;50.476;15.588;2023-02-10T11:59:43;37.50;;;16.10;;
73107;SDS011;61559;50.476;15.588;2023-02-10T12:02:21;43.40;;;17.40;;
73107;SDS011;61559;50.476;15.588;2023-02-10T12:05:06;39.00;;;16.60;;
73107;SDS011;61559;50.476;15.588;2023-02-10T12:07:48;45.70;;;19.10;;
73107;SDS011;61559;50.476;15.588;2023-02-10T12:10:27;51.00;;;20.70;;
73107;SDS011;61559;50.476;15.588;2023-02-10T12:13:05;62.00;;;22.00;;
73107;SDS011;61559;50.476;15.588;2023-02-10T12:15:46;79.20;;;29.20;;
73107;SDS011;61559;50.476;15.588;2023-02-10T12:18:30;82.80;;;29.10;;
73107;SDS011;61559;50.476;15.588;2023-02-10T12:21:18;50.90;;;18.70;;
73107;SDS011;61559;50.476;15.588;2023-02-10T12:24:09;43.50;;;16.40;;
73107;SDS011;61559;50.476;15.588;2023-02-10T12:26:53;26.80;;;11.20;;
73107;SDS011;61559;50.476;15.588;2023-02-10T12:29:32;40.20;;;17.30;;
73107;SDS011;61559;50.476;15.588;2023-02-10T12:32:17;39.60;;;17.80;;
73107;SDS011;61559;50.476;15.588;2023-02-10T12:35:03;36.30;;;16.80;;
73107;SDS011;61559;50.476;15.588;2023-02-10T12:37:47;45.20;;;20.60;;
73107;SDS011;61559;50.476;15.588;2023-02-10T12:40:28;46.70;;;20.40;;
73107;SDS011;61559;50.476;15.588;2023-02-10T12:43:09;39.50;;;17.60;;
73107;SDS011;61559;50.476;15.588;2023-02-10T12:45:57;33.80;;;15.00;;
73107;SDS011;61559;50.476;15.588;2023-02-10T12:48:36;33.30;;;13.80;;
73107;SDS011;61559;50.476;15.588;2023-02-10T12:51:20;48.20;;;19.30;;
73107;SDS011;61559;50.476;15.588;2023-02-10T12:54:02;59.50;;;22.30;;
73107;SDS011;61559;50.476;15.588;2023-02-10T12:56:39;42.10;;;17.90;;
73107;SDS011;61559;50.476;15.588;2023-02-10T12:59:13;37.10;;;16.10;;
73107;SDS011;61559;50.476;15.588;2023-02-10T13:01:49;46.00;;;18.20;;
73107;SDS011;61559;50.476;15.588;2023-02-10T13:04:26;68.60;;;23.30;;
73107;SDS011;61559;50.476;15.588;2023-02-10T13:07:04;58.60;;;20.80;;
73107;SDS011;61559;50.476;15.588;2023-02-10T13:09:55;58.30;;;20.50;;
73107;SDS011;61559;50.476;15.588;2023-02-10T13:12:31;61.50;;;21.40;;
73107;SDS011;61559;50.476;15.588;2023-02-10T13:15:06;34.90;;;16.10;;
73107;SDS011;61559;50.476;15.588;2023-02-10T13:17:48;63.70;;;22.90;;
73107;SDS011;61559;50.476;15.588;2023-02-10T13:23:13;42.00;;;17.10;;
73107;SDS011;61559;50.476;15.588;2023-02-10T13:25:59;41.70;;;15.70;;
73107;SDS011;61559;50.476;15.588;2023-02-10T13:28:48;36.20;;;15.60;;
73107;SDS011;61559;50.476;15.588;2023-02-10T13:31:30;42.50;;;17.10;;
73107;SDS011;61559;50.476;15.588;2023-02-10T13:34:21;57.30;;;20.30;;
73107;SDS011;61559;50.476;15.588;2023-02-10T13:36:55;39.60;;;16.70;;
73107;SDS011;61559;50.476;15.588;2023-02-10T13:39:32;46.10;;;18.20;;
73107;SDS011;61559;50.476;15.588;2023-02-10T13:42:07;49.40;;;19.10;;
73107;SDS011;61559;50.476;15.588;2023-02-10T13:44:55;46.00;;;18.70;;
73107;SDS011;61559;50.476;15.588;2023-02-10T13:47:29;52.90;;;20.80;;
73107;SDS011;61559;50.476;15.588;2023-02-10T13:50:06;34.30;;;15.70;;
73107;SDS011;61559;50.476;15.588;2023-02-10T13:55:26;39.80;;;16.30;;
73107;SDS011;61559;50.476;15.588;2023-02-10T13:58:25;42.20;;;16.80;;
73107;SDS011;61559;50.476;15.588;2023-02-10T14:01:27;40.30;;;16.20;;
73107;SDS011;61559;50.476;15.588;2023-02-10T14:04:03;35.40;;;15.80;;
73107;SDS011;61559;50.476;15.588;2023-02-10T14:06:37;38.40;;;16.30;;
73107;SDS011;61559;50.476;15.588;2023-02-10T14:09:18;36.80;;;17.10;;
73107;SDS011;61559;50.476;15.588;2023-02-10T14:11:51;38.90;;;17.40;;
73107;SDS011;61559;50.476;15.588;2023-02-10T14:14:26;36.70;;;16.40;;
73107;SDS011;61559;50.476;15.588;2023-02-10T14:17:03;37.40;;;16.50;;
73107;SDS011;61559;50.476;15.588;2023-02-10T14:19:38;44.00;;;18.40;;
73107;SDS011;61559;50.476;15.588;2023-02-10T14:22:20;37.00;;;15.50;;
73107;SDS011;61559;50.476;15.588;2023-02-10T14:24:53;40.90;;;18.20;;
73107;SDS011;61559;50.476;15.588;2023-02-10T14:27:28;34.50;;;15.90;;
73107;SDS011;61559;50.476;15.588;2023-02-10T14:30:02;44.30;;;18.10;;
73107;SDS011;61559;50.476;15.588;2023-02-10T14:32:43;43.80;;;20.00;;
73107;SDS011;61559;50.476;15.588;2023-02-10T14:35:18;40.50;;;18.10;;
73107;SDS011;61559;50.476;15.588;2023-02-10T14:37:57;39.30;;;20.40;;
73107;SDS011;61559;50.476;15.588;2023-02-10T14:40:30;36.60;;;17.60;;
73107;SDS011;61559;50.476;15.588;2023-02-10T14:43:02;38.50;;;16.60;;
73107;SDS011;61559;50.476;15.588;2023-02-10T14:48:07;35.70;;;16.20;;
73107;SDS011;61559;50.476;15.588;2023-02-10T14:50:42;34.40;;;15.10;;
73107;SDS011;61559;50.476;15.588;2023-02-10T14:53:17;34.90;;;13.90;;
73107;SDS011;61559;50.476;15.588;2023-02-10T14:55:53;35.20;;;16.00;;
73107;SDS011;61559;50.476;15.588;2023-02-10T14:58:25;40.00;;;16.70;;
73107;SDS011;61559;50.476;15.588;2023-02-10T15:00:57;36.70;;;16.70;;
73107;SDS011;61559;50.476;15.588;2023-02-10T15:03:34;34.90;;;16.40;;
73107;SDS011;61559;50.476;15.588;2023-02-10T15:06:06;38.50;;;16.00;;
73107;SDS011;61559;50.476;15.588;2023-02-10T15:08:39;34.70;;;15.80;;
73107;SDS011;61559;50.476;15.588;2023-02-10T15:11:15;50.20;;;20.00;;
73107;SDS011;61559;50.476;15.588;2023-02-10T15:14:12;49.70;;;20.40;;
73107;SDS011;61559;50.476;15.588;2023-02-10T15:16:47;35.80;;;14.60;;
73107;SDS011;61559;50.476;15.588;2023-02-10T15:19:20;29.90;;;14.20;;
73107;SDS011;61559;50.476;15.588;2023-02-10T15:21:51;30.10;;;14.70;;